createdAt,value
2022-12-14T00:02:29.923Z,-0.45
2022-12-14T00:05:32.231Z,-0.47
2022-12-14T00:08:39.899Z,-0.50
2022-12-14T00:11:44.166Z,-0.47
2022-12-14T00:14:46.579Z,-0.50
2022-12-14T00:17:48.845Z,-0.53
2022-12-14T00:20:51.038Z,-0.50
2022-12-14T00:23:54.403Z,-0.49
2022-12-14T00:26:57.209Z,-0.49
2022-12-14T00:29:59.690Z,-0.49
2022-12-14T00:33:02.535Z,-0.47
2022-12-14T00:36:06.615Z,-0.47
2022-12-14T00:39:08.819Z,-0.49
2022-12-14T00:42:11.010Z,-0.52
2022-12-14T00:45:13.258Z,-0.52
2022-12-14T00:48:16.097Z,-0.49
2022-12-14T00:51:18.747Z,-0.52
2022-12-14T00:54:21.011Z,-0.52
2022-12-14T00:57:23.261Z,-0.52
2022-12-14T01:00:25.502Z,-0.52
2022-12-14T01:03:28.135Z,-0.52
2022-12-14T01:06:30.683Z,-0.50
2022-12-14T01:09:32.943Z,-0.47
2022-12-14T01:12:35.153Z,-0.36
2022-12-14T01:15:37.444Z,-0.50
2022-12-14T01:18:46.212Z,-0.52
2022-12-14T01:21:55.310Z,-0.50
2022-12-14T01:24:57.581Z,-0.54
2022-12-14T01:27:59.785Z,-0.56
2022-12-14T01:31:10.432Z,-0.56
2022-12-14T01:34:12.753Z,-0.61
2022-12-14T01:37:15.270Z,-0.52
2022-12-14T01:40:17.944Z,-0.60
2022-12-14T01:43:20.130Z,-0.60
2022-12-14T01:46:44.015Z,-0.56
2022-12-14T01:50:10.025Z,-0.54
2022-12-14T01:53:18.706Z,-0.49
2022-12-14T01:56:21.062Z,-0.47
2022-12-14T01:59:31.368Z,-0.50
2022-12-14T02:02:33.666Z,-0.61
2022-12-14T02:05:39.783Z,-0.60
2022-12-14T02:08:43.500Z,-0.60
2022-12-14T02:11:54.881Z,-0.60
2022-12-14T02:14:58.591Z,-0.57
2022-12-14T02:18:03.609Z,-0.57
2022-12-14T02:21:21.590Z,-0.63
2022-12-14T02:24:41.893Z,-0.61
2022-12-14T02:28:11.908Z,-0.61
2022-12-14T02:31:31.021Z,-0.60
2022-12-14T02:34:52.591Z,-0.64
2022-12-14T02:38:12.727Z,-0.70
2022-12-14T02:41:44.672Z,-0.73
2022-12-14T02:45:08.270Z,-0.65
2022-12-14T02:48:19.788Z,-0.74
2022-12-14T02:51:58.388Z,-0.74
2022-12-14T02:55:12.042Z,-0.71
2022-12-14T02:58:17.548Z,-0.75
2022-12-14T03:01:23.352Z,-0.71
2022-12-14T03:04:25.699Z,-0.65
2022-12-14T03:07:40.274Z,-0.70
2022-12-14T03:10:55.362Z,-0.71
2022-12-14T03:14:10.272Z,-0.75
2022-12-14T03:17:19.768Z,-0.71
2022-12-14T03:20:25.777Z,-0.61
2022-12-14T03:23:33.760Z,-0.74
2022-12-14T03:26:47.391Z,-0.74
2022-12-14T03:30:05.100Z,-0.74
2022-12-14T03:33:13.502Z,-0.70
2022-12-14T03:36:24.466Z,-0.74
2022-12-14T03:39:32.214Z,-0.73
2022-12-14T03:42:42.127Z,-0.63
2022-12-14T03:46:40.390Z,-0.45
2022-12-14T03:50:04.588Z,-0.49
2022-12-14T03:53:06.746Z,-0.41
2022-12-14T03:56:35.004Z,-0.36
2022-12-14T03:59:37.164Z,-0.32
2022-12-14T04:03:01.274Z,-0.26
2022-12-14T04:06:17.791Z,-0.27
2022-12-14T04:09:29.025Z,-0.14
2022-12-14T04:12:55.008Z,-0.06
2022-12-14T04:16:22.966Z,-0.07
2022-12-14T04:19:36.250Z,-0.07
2022-12-14T04:22:42.904Z,-0.01
2022-12-14T04:26:05.902Z,-0.06
2022-12-14T04:29:32.386Z,-0.10
2022-12-14T04:32:37.487Z,-0.06
2022-12-14T04:35:42.429Z,-0.06
2022-12-14T04:38:47.927Z,-0.06
2022-12-14T04:41:53.418Z,-0.19
2022-12-14T04:45:02.394Z,-0.07
2022-12-14T04:48:38.324Z,-0.23
2022-12-14T04:51:47.291Z,-0.27
2022-12-14T04:54:52.394Z,-0.45
2022-12-14T04:58:12.230Z,-0.45
2022-12-14T05:01:20.683Z,-0.49
2022-12-14T05:04:35.173Z,-0.58
2022-12-14T05:07:48.803Z,-0.57
2022-12-14T05:11:09.808Z,-0.61
2022-12-14T05:14:27.463Z,-0.67
2022-12-14T05:17:30.051Z,-0.57
2022-12-14T05:20:32.830Z,-0.58
2022-12-14T05:23:35.091Z,-0.67
2022-12-14T05:26:37.415Z,-0.73
2022-12-14T05:29:39.672Z,-0.67
2022-12-14T05:32:42.042Z,-0.68
2022-12-14T05:35:44.283Z,-0.50
2022-12-14T05:38:46.744Z,-0.33
2022-12-14T05:41:49.035Z,-0.41
2022-12-14T05:44:51.401Z,-0.53
2022-12-14T05:47:53.647Z,-0.49
2022-12-14T05:50:55.915Z,-0.53
2022-12-14T05:53:59.084Z,-0.44
2022-12-14T05:57:01.471Z,-0.49
2022-12-14T06:00:04.825Z,-0.52
2022-12-14T06:03:07.323Z,-0.58
2022-12-14T06:06:12.008Z,-0.45
2022-12-14T06:09:16.016Z,-0.58
2022-12-14T06:12:18.212Z,-0.52
2022-12-14T06:15:20.623Z,-0.52
2022-12-14T06:18:24.267Z,-0.41
2022-12-14T06:21:29.295Z,-0.43
2022-12-14T06:24:34.374Z,-0.41
2022-12-14T06:27:36.730Z,-0.30
2022-12-14T06:30:39.017Z,-0.45
2022-12-14T06:33:41.395Z,-0.49
2022-12-14T06:36:43.765Z,-0.38
2022-12-14T06:39:49.720Z,-0.41
2022-12-14T06:42:56.322Z,-0.43
2022-12-14T06:46:02.632Z,-0.47
2022-12-14T06:49:06.717Z,-0.50
2022-12-14T06:52:11.387Z,-0.44
2022-12-14T06:55:13.724Z,-0.29
2022-12-14T06:58:15.967Z,-0.43
2022-12-14T07:01:23.594Z,-0.49
2022-12-14T07:04:26.027Z,-0.43
2022-12-14T07:07:28.316Z,-0.52
2022-12-14T07:10:31.932Z,-0.49
2022-12-14T07:13:39.301Z,-0.43
2022-12-14T07:16:49.782Z,-0.43
2022-12-14T07:19:57.695Z,-0.38
2022-12-14T07:23:06.199Z,-0.32
2022-12-14T07:26:13.366Z,-0.20
2022-12-14T07:29:19.314Z,-0.22
2022-12-14T07:32:24.259Z,-0.01
2022-12-14T07:35:27.895Z,-0.06
2022-12-14T07:38:31.535Z,0.25
2022-12-14T07:41:38.652Z,0.26
2022-12-14T07:51:41.445Z,0.19
2022-12-14T07:54:45.665Z,0.12
2022-12-14T07:57:58.060Z,0.11
2022-12-14T08:01:19.925Z,0.05
2022-12-14T08:04:28.434Z,0.19
2022-12-14T08:07:44.821Z,0.22
2022-12-14T08:14:22.436Z,0.49
2022-12-14T08:17:35.382Z,0.60
2022-12-14T08:20:55.643Z,0.63
2022-12-14T08:24:10.899Z,0.69
2022-12-14T08:27:29.929Z,0.75
2022-12-14T08:30:33.170Z,0.86
2022-12-14T08:33:46.919Z,0.87
2022-12-14T08:37:06.800Z,1.00
2022-12-14T08:40:14.228Z,1.23
2022-12-14T08:43:24.836Z,1.24
2022-12-14T08:46:35.374Z,1.42
2022-12-14T08:49:43.444Z,1.52
2022-12-14T08:52:55.189Z,1.38
2022-12-14T08:56:19.814Z,1.47
2022-12-14T08:59:59.763Z,1.61
2022-12-14T09:03:18.982Z,1.66
2022-12-14T09:06:31.373Z,1.61
2022-12-14T09:09:38.339Z,1.78
2022-12-14T09:12:44.702Z,1.79
2022-12-14T09:16:20.782Z,1.81
2022-12-14T09:19:41.336Z,1.87
2022-12-14T09:22:50.409Z,1.92
2022-12-14T09:26:26.339Z,1.99
2022-12-14T09:29:31.194Z,1.90
2022-12-14T09:32:35.723Z,1.99
2022-12-14T09:35:46.653Z,2.06
2022-12-14T09:46:32.208Z,2.36
2022-12-14T09:49:51.189Z,2.23
2022-12-14T09:53:07.884Z,2.51
2022-12-14T09:56:21.853Z,2.37
2022-12-14T09:59:28.964Z,2.27
2022-12-14T10:03:12.060Z,2.34
2022-12-14T10:07:04.024Z,2.53
2022-12-14T10:14:22.642Z,2.70
2022-12-14T10:18:27.455Z,2.85
2022-12-14T10:21:55.073Z,2.96
2022-12-14T10:25:41.133Z,3.08
2022-12-14T10:29:21.434Z,3.60
2022-12-14T10:32:35.997Z,3.39
2022-12-14T10:36:19.735Z,3.56
2022-12-14T10:39:43.058Z,3.83
2022-12-14T10:43:35.971Z,3.71
2022-12-14T10:47:08.748Z,3.98
2022-12-14T10:50:52.984Z,4.24
2022-12-14T10:54:40.732Z,5.34
2022-12-14T10:57:44.221Z,5.14
2022-12-14T11:04:39.981Z,5.92
2022-12-14T11:07:46.470Z,6.80
2022-12-14T11:10:57.619Z,6.87
2022-12-14T11:14:14.962Z,7.94
2022-12-14T11:17:50.172Z,6.43
2022-12-14T11:24:47.201Z,8.72
2022-12-14T11:28:05.873Z,7.30
2022-12-14T11:31:22.022Z,6.84
2022-12-14T11:34:43.411Z,5.59
2022-12-14T11:37:55.119Z,4.90
2022-12-14T11:41:11.116Z,4.80
2022-12-14T11:44:38.206Z,4.93
2022-12-14T11:47:48.269Z,4.38
2022-12-14T11:51:08.113Z,4.75
2022-12-14T11:54:20.943Z,5.47
2022-12-14T11:57:54.105Z,6.30
2022-12-14T12:01:03.989Z,6.23
2022-12-14T12:04:22.304Z,5.35
2022-12-14T12:07:34.483Z,5.01
2022-12-14T12:10:49.850Z,4.90
2022-12-14T12:14:23.260Z,5.14
2022-12-14T12:17:48.775Z,4.76
2022-12-14T12:21:26.648Z,4.07
2022-12-14T12:24:55.154Z,3.80
2022-12-14T12:28:28.854Z,3.54
2022-12-14T12:31:52.271Z,3.52
2022-12-14T12:35:24.419Z,3.35
2022-12-14T12:38:59.957Z,3.43
2022-12-14T12:42:25.705Z,3.42
2022-12-14T12:45:48.366Z,3.33
2022-12-14T12:49:02.883Z,3.59
2022-12-14T12:52:16.722Z,3.67
2022-12-14T12:55:22.451Z,3.88
2022-12-14T12:58:31.693Z,3.88
2022-12-14T13:01:46.405Z,3.71
2022-12-14T13:04:53.787Z,3.90
2022-12-14T13:08:09.796Z,4.01
2022-12-14T13:11:28.147Z,3.81
2022-12-14T13:14:50.161Z,3.57
2022-12-14T13:18:40.627Z,3.50
2022-12-14T13:21:49.698Z,3.20
2022-12-14T13:24:59.004Z,3.08
2022-12-14T13:28:48.938Z,3.06
2022-12-14T13:32:09.923Z,2.98
2022-12-14T13:35:53.960Z,2.95
2022-12-14T13:39:18.105Z,2.91
2022-12-14T13:42:55.388Z,2.84
2022-12-14T13:46:06.735Z,2.84
2022-12-14T13:49:19.716Z,2.82
2022-12-14T13:52:38.110Z,2.84
2022-12-14T13:55:52.156Z,2.82
2022-12-14T13:58:55.437Z,2.85
2022-12-14T14:02:00.692Z,2.84
2022-12-14T14:05:15.139Z,2.84
2022-12-14T14:08:41.340Z,2.85
2022-12-14T14:11:45.006Z,2.91
2022-12-14T14:14:50.867Z,2.85
2022-12-14T14:17:54.846Z,2.75
2022-12-14T14:21:21.654Z,2.78
2022-12-14T14:24:23.974Z,2.72
2022-12-14T14:27:30.015Z,2.65
2022-12-14T14:30:53.312Z,2.62
2022-12-14T14:33:55.981Z,2.65
2022-12-14T14:36:58.204Z,2.60
2022-12-14T14:40:20.794Z,2.57
2022-12-14T14:43:33.331Z,2.54
2022-12-14T14:46:45.944Z,2.51
2022-12-14T14:49:54.828Z,2.53
2022-12-14T14:53:11.150Z,2.48
2022-12-14T14:56:37.333Z,2.47
2022-12-14T14:59:46.871Z,2.41
2022-12-14T15:02:54.890Z,2.41
2022-12-14T15:05:58.144Z,2.43
2022-12-14T15:09:07.174Z,2.45
2022-12-14T15:12:32.504Z,2.44
2022-12-14T15:15:49.875Z,2.43
2022-12-14T15:18:52.167Z,2.47
2022-12-14T15:22:02.585Z,2.45
2022-12-14T15:25:10.424Z,2.47
2022-12-14T15:28:21.368Z,2.47
2022-12-14T15:31:33.132Z,2.40
2022-12-14T15:34:35.451Z,2.41
2022-12-14T15:37:40.268Z,2.43
2022-12-14T15:40:58.028Z,2.40
2022-12-14T15:44:01.049Z,2.41
2022-12-14T15:47:03.418Z,2.41
2022-12-14T15:50:20.850Z,2.44
2022-12-14T15:53:26.266Z,2.36
2022-12-14T15:56:34.982Z,2.40
2022-12-14T15:59:37.194Z,2.37
2022-12-14T16:02:44.018Z,2.34
2022-12-14T16:05:46.580Z,2.36
2022-12-14T16:08:57.723Z,2.34
2022-12-14T16:12:06.303Z,2.33
2022-12-14T16:15:18.006Z,2.29
2022-12-14T16:18:21.368Z,2.34
2022-12-14T16:21:35.290Z,2.37
2022-12-14T16:24:38.391Z,2.34
2022-12-14T16:27:42.999Z,2.33
2022-12-14T16:30:54.674Z,2.26
2022-12-14T16:34:09.543Z,2.38
2022-12-14T16:37:32.516Z,2.29
2022-12-14T16:40:41.913Z,2.27
2022-12-14T16:43:56.107Z,2.23
2022-12-14T16:47:01.185Z,2.24
2022-12-14T16:50:47.616Z,2.23
2022-12-14T16:53:50.899Z,2.22
2022-12-14T16:56:57.512Z,2.19
2022-12-14T17:00:02.486Z,2.20
2022-12-14T17:03:23.217Z,2.17
2022-12-14T17:06:36.448Z,2.14
2022-12-14T17:09:40.020Z,2.10
2022-12-14T17:12:44.051Z,2.12
2022-12-14T17:16:19.263Z,2.12
2022-12-14T17:19:33.551Z,2.16
2022-12-14T17:22:35.924Z,2.12
2022-12-14T17:25:40.948Z,2.13
2022-12-14T17:28:46.956Z,2.12
2022-12-14T17:31:52.427Z,2.12
2022-12-14T17:34:54.639Z,2.16
2022-12-14T17:37:57.260Z,2.13
2022-12-14T17:40:59.530Z,2.10
2022-12-14T17:44:01.942Z,2.07
2022-12-14T17:47:04.227Z,2.03
2022-12-14T17:50:06.735Z,2.00
2022-12-14T17:53:18.095Z,1.96
2022-12-14T17:56:20.961Z,1.89
2022-12-14T17:59:23.305Z,1.87
2022-12-14T18:02:33.446Z,1.90
2022-12-14T18:05:35.967Z,1.92
2022-12-14T18:08:38.210Z,1.89
2022-12-14T18:12:00.311Z,1.92
2022-12-14T18:15:02.636Z,1.90
2022-12-14T18:18:05.165Z,1.92
2022-12-14T18:21:19.281Z,1.96
2022-12-14T18:24:25.682Z,2.00
2022-12-14T18:27:28.320Z,1.93
2022-12-14T18:30:38.656Z,1.92
2022-12-14T18:33:43.728Z,1.90
2022-12-14T18:36:45.921Z,1.82
2022-12-14T18:39:49.387Z,1.85
2022-12-14T18:42:51.842Z,1.86
2022-12-14T18:45:54.859Z,1.85
2022-12-14T18:48:57.076Z,1.87
2022-12-14T18:51:59.309Z,1.83
2022-12-14T18:55:01.794Z,1.85
2022-12-14T18:58:04.256Z,1.85
2022-12-14T19:01:06.553Z,1.85
2022-12-14T19:04:08.906Z,1.89
2022-12-14T19:07:11.166Z,1.95
2022-12-14T19:10:19.434Z,1.95
2022-12-14T19:13:25.805Z,1.93
2022-12-14T19:16:29.213Z,1.92
2022-12-14T19:19:38.084Z,1.86
2022-12-14T19:22:45.672Z,1.92
2022-12-14T19:25:48.076Z,1.92
2022-12-14T19:28:50.374Z,1.90
2022-12-14T19:31:54.412Z,1.92
2022-12-14T19:34:56.946Z,1.90
2022-12-14T19:37:59.452Z,1.89
2022-12-14T19:41:04.375Z,1.89
2022-12-14T19:44:06.561Z,1.87
2022-12-14T19:47:09.089Z,1.86
2022-12-14T19:50:13.920Z,1.92
2022-12-14T19:53:21.573Z,1.92
2022-12-14T19:56:25.823Z,1.92
2022-12-14T19:59:28.151Z,1.92
2022-12-14T20:02:30.598Z,1.92
2022-12-14T20:05:33.018Z,1.90
2022-12-14T20:08:36.073Z,1.90
2022-12-14T20:11:38.274Z,1.89
2022-12-14T20:14:40.504Z,1.93
2022-12-14T20:17:42.677Z,1.92
2022-12-14T20:20:45.677Z,1.96
2022-12-14T20:23:58.767Z,1.96
2022-12-14T20:27:00.984Z,1.93
2022-12-14T20:30:04.455Z,1.90
2022-12-14T20:33:06.636Z,1.86
2022-12-14T20:36:09.539Z,1.87
2022-12-14T20:39:11.849Z,1.92
2022-12-14T20:42:14.069Z,1.90
2022-12-14T20:45:16.360Z,1.87
2022-12-14T20:48:26.176Z,1.87
2022-12-14T20:51:30.338Z,1.85
2022-12-14T20:54:32.584Z,1.89
2022-12-14T20:57:34.951Z,1.90
2022-12-14T21:00:37.199Z,1.86
2022-12-14T21:03:40.025Z,1.90
2022-12-14T21:06:43.183Z,1.86
2022-12-14T21:09:45.523Z,1.83
2022-12-14T21:12:48.998Z,1.83
2022-12-14T21:15:51.191Z,1.83
2022-12-14T21:18:53.458Z,1.86
2022-12-14T21:21:56.330Z,1.83
2022-12-14T21:25:04.096Z,1.92
2022-12-14T21:28:07.715Z,1.90
2022-12-14T21:31:15.814Z,1.99
2022-12-14T21:34:19.979Z,2.02
2022-12-14T21:37:22.429Z,2.05
2022-12-14T21:40:43.220Z,2.13
2022-12-14T21:43:45.512Z,2.17
2022-12-14T21:46:47.923Z,2.16
2022-12-14T21:49:50.287Z,2.29
2022-12-14T21:52:52.688Z,2.30
2022-12-14T21:56:14.886Z,2.29
2022-12-14T21:59:22.966Z,2.27
2022-12-14T22:02:25.972Z,2.16
2022-12-14T22:05:28.310Z,2.31
2022-12-14T22:08:30.983Z,2.29
2022-12-14T22:11:33.875Z,2.07
2022-12-14T22:14:36.480Z,2.12
2022-12-14T22:17:38.667Z,2.20
2022-12-14T22:20:42.235Z,2.37
2022-12-14T22:23:44.654Z,2.48
2022-12-14T22:26:47.320Z,2.53
2022-12-14T22:29:49.554Z,2.44
2022-12-14T22:32:51.781Z,2.47
2022-12-14T22:35:53.982Z,2.31
2022-12-14T22:38:57.755Z,2.54
2022-12-14T22:42:00.295Z,2.66
2022-12-14T22:45:09.557Z,2.64
2022-12-14T22:48:11.819Z,2.41
2022-12-14T22:51:15.173Z,2.36
2022-12-14T22:54:23.635Z,2.44
2022-12-14T22:57:26.072Z,2.48
2022-12-14T23:00:28.279Z,2.57
2022-12-14T23:03:31.270Z,2.53
2022-12-14T23:06:34.487Z,2.61
2022-12-14T23:09:55.474Z,2.53
2022-12-14T23:13:15.973Z,2.47
2022-12-14T23:16:37.014Z,2.64
2022-12-14T23:20:01.229Z,2.66
2022-12-14T23:23:27.337Z,2.77
2022-12-14T23:26:48.759Z,2.80
2022-12-14T23:30:09.474Z,2.74
2022-12-14T23:33:30.311Z,2.68
2022-12-14T23:36:51.348Z,2.65
2022-12-14T23:40:11.841Z,2.61
2022-12-14T23:43:35.442Z,2.64
2022-12-14T23:46:56.529Z,2.45
2022-12-14T23:50:17.500Z,2.23
2022-12-14T23:53:37.939Z,2.36
2022-12-14T23:56:58.435Z,2.12
